createdAt,value
2023-03-12T00:00:16.536Z,0.52
2023-03-12T00:02:49.166Z,0.60
2023-03-12T00:05:22.723Z,0.73
2023-03-12T00:07:54.214Z,0.50
2023-03-12T00:10:26.007Z,1.05
2023-03-12T00:12:57.738Z,0.40
2023-03-12T00:15:29.312Z,0.20
2023-03-12T00:18:00.788Z,0.40
2023-03-12T00:20:34.280Z,0.30
2023-03-12T00:23:05.827Z,0.95
2023-03-12T00:25:37.339Z,0.40
2023-03-12T00:28:08.808Z,0.32
2023-03-12T00:30:40.973Z,0.60
2023-03-12T00:33:12.484Z,0.45
2023-03-12T00:35:44.063Z,0.65
2023-03-12T00:38:15.617Z,0.50
2023-03-12T00:40:47.606Z,0.30
2023-03-12T00:43:19.107Z,0.65
2023-03-12T00:45:50.909Z,0.30
2023-03-12T00:48:22.445Z,0.60
2023-03-12T00:50:54.091Z,0.50
2023-03-12T00:53:25.561Z,0.30
2023-03-12T00:55:57.231Z,0.30
2023-03-12T00:58:28.704Z,0.32
2023-03-12T01:01:00.551Z,0.40
2023-03-12T01:03:32.102Z,0.30
2023-03-12T01:06:03.907Z,0.43
2023-03-12T01:08:35.476Z,0.47
2023-03-12T01:11:07.336Z,0.45
2023-03-12T01:13:38.805Z,0.32
2023-03-12T01:16:10.678Z,0.30
2023-03-12T01:18:42.194Z,0.30
2023-03-12T01:21:13.912Z,0.43
2023-03-12T01:23:45.643Z,0.43
2023-03-12T01:26:17.183Z,0.80
2023-03-12T01:28:48.670Z,0.30
2023-03-12T01:31:20.546Z,0.30
2023-03-12T01:33:52.118Z,0.52
2023-03-12T01:36:26.862Z,0.30
2023-03-12T01:38:58.465Z,0.20
2023-03-12T01:41:32.154Z,0.82
2023-03-12T01:44:03.859Z,0.75
2023-03-12T01:46:35.788Z,0.73
2023-03-12T01:49:08.155Z,0.22
2023-03-12T01:51:40.723Z,0.70
2023-03-12T01:54:12.279Z,0.35
2023-03-12T01:56:44.008Z,0.35
2023-03-12T01:59:15.579Z,0.40
2023-03-12T02:01:47.536Z,0.60
2023-03-12T02:04:19.185Z,0.30
2023-03-12T02:06:51.174Z,0.70
2023-03-12T02:09:23.173Z,0.30
2023-03-12T02:11:55.367Z,0.73
2023-03-12T02:14:26.888Z,0.43
2023-03-12T02:16:58.580Z,0.40
2023-03-12T02:19:30.070Z,0.30
2023-03-12T02:22:01.967Z,0.80
2023-03-12T02:24:33.467Z,1.15
2023-03-12T02:27:05.358Z,0.57
2023-03-12T02:29:36.876Z,0.50
2023-03-12T02:32:08.751Z,0.57
2023-03-12T02:34:40.276Z,0.40
2023-03-12T02:37:12.179Z,0.45
2023-03-12T02:39:43.702Z,0.20
2023-03-12T02:42:15.577Z,0.52
2023-03-12T02:44:47.322Z,0.30
2023-03-12T02:47:19.202Z,0.73
2023-03-12T02:49:50.727Z,0.77
2023-03-12T02:52:22.261Z,0.63
2023-03-12T02:54:53.857Z,0.43
2023-03-12T02:57:25.710Z,0.50
2023-03-12T02:59:57.221Z,0.70
2023-03-12T03:02:28.738Z,0.52
2023-03-12T03:05:00.226Z,0.50
2023-03-12T03:07:31.723Z,0.73
2023-03-12T03:10:04.434Z,0.82
2023-03-12T03:15:07.806Z,0.30
2023-03-12T03:17:39.751Z,0.32
2023-03-12T03:20:11.985Z,0.90
2023-03-12T03:22:43.646Z,0.90
2023-03-12T03:25:15.872Z,0.57
2023-03-12T03:27:47.689Z,0.60
2023-03-12T03:30:19.205Z,0.20
2023-03-12T03:32:51.188Z,0.60
2023-03-12T03:35:24.141Z,0.50
2023-03-12T03:37:55.951Z,0.40
2023-03-12T03:40:27.515Z,0.97
2023-03-12T03:42:59.221Z,0.30
2023-03-12T03:45:30.716Z,0.40
2023-03-12T03:48:02.423Z,0.45
2023-03-12T03:50:34.151Z,0.65
2023-03-12T03:53:05.985Z,0.97
2023-03-12T03:55:37.576Z,0.43
2023-03-12T03:58:09.371Z,1.02
2023-03-12T04:00:40.850Z,0.30
2023-03-12T04:03:13.682Z,0.30
2023-03-12T04:05:45.320Z,0.30
2023-03-12T04:08:16.965Z,0.20
2023-03-12T04:10:48.452Z,0.40
2023-03-12T04:13:20.197Z,0.70
2023-03-12T04:15:51.822Z,1.40
2023-03-12T04:18:23.532Z,0.40
2023-03-12T04:20:55.012Z,0.50
2023-03-12T04:23:26.920Z,0.50
2023-03-12T04:25:58.477Z,1.65
2023-03-12T04:28:29.970Z,0.60
2023-03-12T04:31:01.493Z,0.40
2023-03-12T04:33:33.071Z,0.52
2023-03-12T04:36:04.596Z,0.60
2023-03-12T04:38:36.384Z,0.35
2023-03-12T04:41:07.962Z,0.70
2023-03-12T04:43:39.645Z,0.25
2023-03-12T04:46:11.192Z,0.68
2023-03-12T04:48:43.047Z,0.80
2023-03-12T04:51:14.507Z,0.90
2023-03-12T04:53:46.504Z,0.88
2023-03-12T04:56:18.029Z,0.88
2023-03-12T04:58:49.913Z,1.40
2023-03-12T05:01:21.405Z,0.40
2023-03-12T05:03:53.370Z,0.65
2023-03-12T05:06:24.951Z,1.13
2023-03-12T05:08:56.780Z,0.82
2023-03-12T05:11:28.403Z,0.85
2023-03-12T05:13:59.963Z,0.55
2023-03-12T05:16:31.712Z,1.42
2023-03-12T05:19:04.161Z,0.87
2023-03-12T05:21:36.040Z,0.55
2023-03-12T05:24:07.554Z,0.80
2023-03-12T05:26:39.266Z,0.57
2023-03-12T05:29:10.757Z,0.70
2023-03-12T05:31:42.534Z,0.65
2023-03-12T05:34:14.092Z,0.55
2023-03-12T05:36:46.099Z,0.82
2023-03-12T05:39:17.630Z,1.33
2023-03-12T05:41:49.509Z,0.73
2023-03-12T05:44:21.012Z,0.60
2023-03-12T05:46:52.856Z,0.90
2023-03-12T05:49:24.356Z,0.60
2023-03-12T05:51:56.292Z,0.57
2023-03-12T05:54:27.866Z,0.88
2023-03-12T05:56:59.572Z,0.30
2023-03-12T05:59:31.085Z,0.67
2023-03-12T06:02:02.791Z,0.45
2023-03-12T06:04:34.305Z,0.50
2023-03-12T06:07:06.169Z,0.77
2023-03-12T06:09:37.660Z,0.43
2023-03-12T06:12:09.716Z,0.43
2023-03-12T06:14:41.424Z,0.68
2023-03-12T06:17:13.256Z,0.50
2023-03-12T06:19:44.867Z,0.52
2023-03-12T06:22:16.764Z,0.47
2023-03-12T06:24:48.311Z,0.82
2023-03-12T06:27:20.172Z,0.73
2023-03-12T06:29:51.692Z,0.40
2023-03-12T06:32:23.550Z,0.30
2023-03-12T06:34:55.046Z,0.82
2023-03-12T06:37:26.934Z,0.50
2023-03-12T06:39:58.500Z,0.65
2023-03-12T06:42:30.037Z,0.40
2023-03-12T06:45:01.532Z,0.68
2023-03-12T06:47:33.023Z,0.90
2023-03-12T06:50:04.535Z,0.60
2023-03-12T06:52:36.022Z,0.77
2023-03-12T06:55:07.510Z,0.57
2023-03-12T06:57:39.409Z,0.77
2023-03-12T07:00:10.925Z,0.73
2023-03-12T07:02:42.694Z,0.30
2023-03-12T07:05:14.206Z,0.40
2023-03-12T07:07:45.728Z,0.38
2023-03-12T07:10:17.863Z,0.43
2023-03-12T07:12:49.383Z,0.70
2023-03-12T07:15:20.933Z,0.50
2023-03-12T07:17:52.854Z,0.80
2023-03-12T07:20:24.326Z,0.93
2023-03-12T07:22:56.160Z,0.38
2023-03-12T07:25:27.786Z,0.40
2023-03-12T07:27:59.587Z,0.60
2023-03-12T07:30:33.405Z,0.70
2023-03-12T07:33:05.585Z,0.77
2023-03-12T07:35:38.684Z,0.90
2023-03-12T07:38:10.824Z,0.57
2023-03-12T07:40:42.383Z,0.65
2023-03-12T07:43:14.085Z,0.55
2023-03-12T07:45:45.842Z,0.57
2023-03-12T07:48:20.067Z,0.60
2023-03-12T07:50:52.158Z,0.80
2023-03-12T07:53:23.930Z,0.85
2023-03-12T07:55:55.514Z,0.52
2023-03-12T07:58:27.722Z,0.60
2023-03-12T08:00:59.311Z,0.90
2023-03-12T08:03:31.058Z,0.57
2023-03-12T08:06:02.906Z,0.70
2023-03-12T08:08:36.417Z,0.75
2023-03-12T08:11:07.931Z,0.45
2023-03-12T08:13:40.035Z,0.50
2023-03-12T08:16:11.586Z,0.93
2023-03-12T08:18:43.191Z,0.88
2023-03-12T08:21:16.672Z,0.65
2023-03-12T08:23:48.730Z,0.50
2023-03-12T08:26:20.263Z,1.00
2023-03-12T08:28:52.305Z,0.60
2023-03-12T08:31:23.819Z,0.97
2023-03-12T08:33:55.638Z,0.60
2023-03-12T08:36:27.214Z,0.77
2023-03-12T08:38:59.137Z,0.98
2023-03-12T08:41:30.688Z,0.63
2023-03-12T08:44:02.617Z,0.80
2023-03-12T08:46:34.912Z,0.87
2023-03-12T08:49:06.820Z,1.17
2023-03-12T08:51:38.382Z,0.77
2023-03-12T08:54:09.944Z,0.70
2023-03-12T08:56:46.534Z,0.63
2023-03-12T08:59:18.464Z,0.47
2023-03-12T09:01:49.969Z,0.60
2023-03-12T09:04:21.818Z,0.70
2023-03-12T09:06:53.362Z,0.55
2023-03-12T09:09:25.195Z,0.95
2023-03-12T09:11:56.677Z,0.60
2023-03-12T09:15:01.449Z,0.60
2023-03-12T09:17:19.704Z,0.70
2023-03-12T09:19:51.563Z,0.60
2023-03-12T09:22:23.109Z,0.70
2023-03-12T09:24:54.872Z,0.70
2023-03-12T09:27:26.405Z,0.77
2023-03-12T09:30:00.544Z,0.70
2023-03-12T09:32:32.721Z,0.68
2023-03-12T09:35:04.627Z,0.63
2023-03-12T09:37:36.102Z,0.43
2023-03-12T09:40:08.161Z,0.52
2023-03-12T09:42:39.667Z,0.80
2023-03-12T09:45:11.446Z,0.55
2023-03-12T09:47:42.945Z,0.73
2023-03-12T09:50:14.756Z,0.68
2023-03-12T09:52:46.263Z,0.55
2023-03-12T09:55:18.077Z,0.50
2023-03-12T09:57:50.902Z,0.70
2023-03-12T10:00:22.388Z,0.75
2023-03-12T10:02:54.333Z,0.60
2023-03-12T10:05:25.989Z,0.53
2023-03-12T10:07:58.170Z,0.73
2023-03-12T10:10:29.690Z,0.55
2023-03-12T10:13:01.405Z,0.75
2023-03-12T10:15:32.894Z,0.38
2023-03-12T10:18:04.660Z,0.73
2023-03-12T10:20:36.265Z,0.40
2023-03-12T10:23:08.187Z,0.20
2023-03-12T10:25:39.684Z,0.30
2023-03-12T10:28:11.514Z,0.60
2023-03-12T10:30:43.050Z,0.60
2023-03-12T10:33:14.793Z,0.30
2023-03-12T10:35:46.479Z,0.50
2023-03-12T10:38:18.447Z,0.65
2023-03-12T10:40:49.923Z,0.40
2023-03-12T10:43:21.763Z,0.68
2023-03-12T10:45:53.308Z,0.60
2023-03-12T10:48:25.065Z,0.60
2023-03-12T10:50:56.581Z,0.90
2023-03-12T10:53:29.832Z,0.50
2023-03-12T10:56:01.595Z,0.60
2023-03-12T10:58:33.202Z,0.57
2023-03-12T11:01:04.785Z,0.77
2023-03-12T11:03:36.647Z,0.75
2023-03-12T11:06:08.301Z,0.70
2023-03-12T11:08:40.007Z,0.80
2023-03-12T11:11:11.506Z,0.60
2023-03-12T11:13:43.389Z,0.85
2023-03-12T11:16:14.921Z,0.93
2023-03-12T11:18:46.735Z,1.00
2023-03-12T11:21:18.289Z,0.90
2023-03-12T11:23:49.986Z,0.80
2023-03-12T11:26:22.129Z,0.80
2023-03-12T11:28:53.994Z,0.88
2023-03-12T11:31:25.479Z,0.68
2023-03-12T11:33:57.360Z,0.90
2023-03-12T11:36:28.950Z,0.93
2023-03-12T11:39:00.706Z,0.80
2023-03-12T11:41:32.342Z,0.70
2023-03-12T11:44:04.035Z,0.70
2023-03-12T11:46:36.246Z,1.02
2023-03-12T11:49:08.192Z,0.60
2023-03-12T11:51:39.656Z,0.80
2023-03-12T11:54:11.464Z,0.50
2023-03-12T11:56:42.974Z,0.60
2023-03-12T11:59:14.851Z,0.60
2023-03-12T12:01:46.432Z,1.20
2023-03-12T12:04:17.983Z,0.50
2023-03-12T12:06:49.465Z,0.73
2023-03-12T12:09:21.503Z,0.90
2023-03-12T12:11:54.504Z,0.60
2023-03-12T12:14:26.371Z,0.80
2023-03-12T12:16:57.851Z,0.90
2023-03-12T12:19:29.394Z,0.85
2023-03-12T12:22:00.933Z,0.68
2023-03-12T12:24:32.619Z,0.85
2023-03-12T12:27:04.190Z,0.70
2023-03-12T12:29:36.851Z,0.80
2023-03-12T12:32:08.481Z,0.68
2023-03-12T12:34:40.395Z,0.85
2023-03-12T12:37:11.884Z,1.23
2023-03-12T12:39:45.869Z,0.65
2023-03-12T12:42:21.556Z,1.10
2023-03-12T12:44:53.172Z,0.70
2023-03-12T12:47:24.724Z,1.00
2023-03-12T12:49:57.751Z,0.60
2023-03-12T12:52:29.226Z,0.60
2023-03-12T12:55:01.091Z,0.50
2023-03-12T12:57:32.614Z,0.77
2023-03-12T13:00:06.305Z,0.80
2023-03-12T13:02:37.801Z,0.80
2023-03-12T13:05:09.311Z,0.52
2023-03-12T13:07:40.870Z,0.63
2023-03-12T13:10:12.786Z,0.80
2023-03-12T13:12:44.381Z,0.90
2023-03-12T13:15:16.171Z,0.60
2023-03-12T13:17:47.654Z,0.95
2023-03-12T13:20:20.754Z,0.65
2023-03-12T13:22:52.252Z,0.50
2023-03-12T13:25:23.762Z,0.30
2023-03-12T13:27:55.247Z,0.60
2023-03-12T13:30:27.094Z,0.60
2023-03-12T13:32:58.873Z,0.32
2023-03-12T13:35:30.415Z,0.50
2023-03-12T13:38:01.926Z,0.60
2023-03-12T13:40:33.412Z,0.50
2023-03-12T13:43:04.883Z,0.47
2023-03-12T13:45:36.663Z,0.43
2023-03-12T13:48:08.179Z,0.30
2023-03-12T13:50:39.889Z,0.45
2023-03-12T13:53:11.402Z,0.47
2023-03-12T13:55:42.910Z,0.30
2023-03-12T13:58:16.736Z,0.38
2023-03-12T14:00:48.614Z,0.40
2023-03-12T14:03:20.115Z,0.55
2023-03-12T14:05:52.186Z,0.30
2023-03-12T14:08:23.664Z,0.70
2023-03-12T14:10:55.493Z,0.40
2023-03-12T14:13:27.004Z,0.50
2023-03-12T14:15:58.962Z,0.30
2023-03-12T14:18:30.694Z,0.43
2023-03-12T14:21:02.390Z,0.40
2023-03-12T14:23:33.953Z,0.47
2023-03-12T14:26:06.877Z,0.50
2023-03-12T14:31:10.027Z,0.40
2023-03-12T14:33:41.556Z,0.43
2023-03-12T14:36:13.459Z,0.47
2023-03-12T14:38:44.970Z,0.30
2023-03-12T14:41:16.464Z,0.40
2023-03-12T14:43:47.953Z,0.40
2023-03-12T14:46:19.598Z,0.30
2023-03-12T14:48:51.148Z,0.22
2023-03-12T14:51:24.382Z,0.68
2023-03-12T14:53:56.069Z,0.43
2023-03-12T14:56:29.537Z,0.30
2023-03-12T14:59:01.696Z,0.40
2023-03-12T15:01:33.421Z,0.25
2023-03-12T15:04:05.076Z,0.50
2023-03-12T15:06:36.928Z,0.30
2023-03-12T15:09:08.445Z,0.60
2023-03-12T15:11:39.986Z,0.45
2023-03-12T15:14:11.472Z,0.40
2023-03-12T15:16:43.377Z,0.30
2023-03-12T15:19:14.984Z,0.37
2023-03-12T15:21:46.871Z,0.30
2023-03-12T15:24:19.273Z,0.35
2023-03-12T15:26:50.771Z,0.73
2023-03-12T15:29:26.938Z,0.40
2023-03-12T15:31:58.744Z,0.60
2023-03-12T15:34:32.203Z,0.73
2023-03-12T15:37:04.773Z,0.73
2023-03-12T15:39:36.695Z,0.52
2023-03-12T15:42:08.292Z,0.40
2023-03-12T15:44:40.088Z,0.98
2023-03-12T15:47:11.604Z,0.90
2023-03-12T15:49:43.469Z,0.82
2023-03-12T15:52:14.945Z,0.50
2023-03-12T15:54:46.723Z,0.40
2023-03-12T15:57:18.765Z,0.30
2023-03-12T15:59:50.342Z,0.30
2023-03-12T16:02:21.879Z,0.50
2023-03-12T16:04:53.893Z,0.82
2023-03-12T16:07:25.406Z,1.07
2023-03-12T16:09:57.234Z,0.50
2023-03-12T16:12:28.763Z,0.60
2023-03-12T16:15:00.551Z,1.00
2023-03-12T16:17:32.042Z,0.68
2023-03-12T16:20:05.308Z,0.60
2023-03-12T16:22:36.819Z,0.65
2023-03-12T16:25:10.112Z,0.68
2023-03-12T16:27:44.451Z,0.90
2023-03-12T16:30:16.359Z,0.90
2023-03-12T16:32:48.012Z,0.90
2023-03-12T16:35:19.671Z,0.73
2023-03-12T16:37:51.234Z,0.45
2023-03-12T16:40:33.038Z,0.82
2023-03-12T16:43:06.619Z,0.80
2023-03-12T16:45:38.501Z,0.82
2023-03-12T16:48:10.206Z,1.10
2023-03-12T16:50:41.911Z,0.82
2023-03-12T16:53:13.395Z,0.57
2023-03-12T16:55:45.074Z,0.63
2023-03-12T16:58:16.625Z,0.73
2023-03-12T17:00:48.505Z,0.90
2023-03-12T17:03:20.133Z,0.90
2023-03-12T17:05:51.757Z,0.80
2023-03-12T17:08:23.289Z,0.60
2023-03-12T17:10:55.327Z,1.08
2023-03-12T17:13:26.863Z,1.02
2023-03-12T17:15:58.864Z,0.52
2023-03-12T17:18:30.475Z,0.75
2023-03-12T17:21:02.287Z,0.70
2023-03-12T17:23:33.887Z,0.95
2023-03-12T17:26:06.243Z,0.60
2023-03-12T17:28:37.784Z,0.50
2023-03-12T17:31:09.641Z,0.73
2023-03-12T17:33:42.967Z,0.60
2023-03-12T17:36:14.855Z,1.00
2023-03-12T17:38:46.378Z,0.40
2023-03-12T17:41:27.288Z,0.50
2023-03-12T17:44:03.901Z,0.45
2023-03-12T17:46:40.716Z,0.60
2023-03-12T17:49:18.616Z,0.50
2023-03-12T17:51:50.561Z,1.20
2023-03-12T17:54:22.372Z,0.80
2023-03-12T17:56:54.223Z,1.27
2023-03-12T17:59:25.818Z,0.60
2023-03-12T18:01:57.726Z,0.55
2023-03-12T18:04:29.266Z,1.07
2023-03-12T18:07:01.171Z,0.45
2023-03-12T18:09:32.704Z,0.67
2023-03-12T18:12:04.456Z,1.13
2023-03-12T18:14:36.025Z,1.40
2023-03-12T18:17:13.930Z,1.02
2023-03-12T18:19:45.483Z,0.82
2023-03-12T18:22:17.500Z,1.00
2023-03-12T18:24:49.002Z,1.00
2023-03-12T18:27:20.635Z,0.88
2023-03-12T18:29:52.160Z,0.88
2023-03-12T18:32:24.114Z,0.75
2023-03-12T18:34:55.675Z,1.55
2023-03-12T18:37:27.220Z,0.80
2023-03-12T18:39:58.792Z,1.23
2023-03-12T18:42:30.544Z,0.90
2023-03-12T18:45:02.081Z,1.45
2023-03-12T18:47:35.049Z,0.98
2023-03-12T18:50:06.572Z,0.90
2023-03-12T18:52:38.121Z,0.85
2023-03-12T18:55:15.230Z,0.73
2023-03-12T18:57:47.650Z,0.73
2023-03-12T19:00:19.264Z,0.52
2023-03-12T19:02:50.828Z,0.70
2023-03-12T19:05:22.684Z,0.52
2023-03-12T19:07:54.219Z,0.60
2023-03-12T19:10:26.076Z,0.82
2023-03-12T19:12:58.960Z,1.00
2023-03-12T19:15:31.481Z,0.60
2023-03-12T19:18:03.015Z,1.08
2023-03-12T19:20:34.568Z,1.15
2023-03-12T19:23:06.200Z,0.95
2023-03-12T19:25:38.342Z,1.40
2023-03-12T19:28:09.884Z,0.77
2023-03-12T19:30:41.741Z,1.02
2023-03-12T19:33:13.316Z,1.00
2023-03-12T19:35:44.930Z,0.90
2023-03-12T19:38:16.479Z,1.10
2023-03-12T19:40:48.062Z,1.33
2023-03-12T19:43:19.602Z,1.15
2023-03-12T19:45:51.196Z,0.82
2023-03-12T19:48:22.776Z,0.88
2023-03-12T19:50:56.232Z,0.93
2023-03-12T19:53:27.767Z,1.15
2023-03-12T19:55:59.611Z,1.27
2023-03-12T19:58:31.184Z,0.83
2023-03-12T20:01:02.914Z,0.82
2023-03-12T20:03:34.920Z,1.20
2023-03-12T20:06:06.874Z,0.70
2023-03-12T20:08:38.394Z,1.37
2023-03-12T20:11:10.433Z,1.55
2023-03-12T20:13:41.976Z,0.70
2023-03-12T20:16:14.321Z,0.70
2023-03-12T20:18:45.914Z,1.10
2023-03-12T20:21:17.839Z,0.93
2023-03-12T20:23:49.363Z,2.00
2023-03-12T20:26:21.273Z,1.40
2023-03-12T20:28:52.798Z,0.90
2023-03-12T20:31:24.548Z,1.80
2023-03-12T20:33:56.097Z,0.90
2023-03-12T20:36:27.661Z,1.80
2023-03-12T20:38:59.185Z,1.33
2023-03-12T20:41:30.889Z,1.13
2023-03-12T20:44:02.405Z,1.27
2023-03-12T20:46:34.006Z,1.98
2023-03-12T20:49:05.523Z,0.82
2023-03-12T20:51:37.152Z,1.08
2023-03-12T20:54:08.705Z,1.13
2023-03-12T20:56:43.916Z,1.00
2023-03-12T20:59:15.469Z,1.27
2023-03-12T21:01:47.345Z,0.77
2023-03-12T21:04:18.879Z,1.17
2023-03-12T21:06:51.734Z,0.90
2023-03-12T21:09:23.600Z,1.27
2023-03-12T21:11:55.838Z,1.15
2023-03-12T21:14:27.362Z,1.48
2023-03-12T21:16:59.479Z,1.30
2023-03-12T21:19:31.179Z,1.33
2023-03-12T21:22:02.903Z,1.67
2023-03-12T21:24:34.577Z,0.82
2023-03-12T21:27:06.575Z,1.35
2023-03-12T21:29:38.098Z,1.20
2023-03-12T21:32:09.625Z,1.10
2023-03-12T21:34:41.149Z,1.10
2023-03-12T21:37:13.143Z,1.70
2023-03-12T21:39:44.681Z,0.97
2023-03-12T21:42:16.547Z,1.30
2023-03-12T21:44:48.065Z,1.00
2023-03-12T21:47:20.097Z,1.60
2023-03-12T21:49:51.621Z,2.15
2023-03-12T21:52:23.168Z,1.75
2023-03-12T21:54:54.669Z,1.85
2023-03-12T21:57:26.496Z,1.88
2023-03-12T21:59:57.990Z,1.00
2023-03-12T22:02:31.157Z,1.58
2023-03-12T22:05:02.662Z,1.90
2023-03-12T22:07:34.368Z,1.02
2023-03-12T22:10:06.001Z,1.50
2023-03-12T22:12:37.692Z,1.50
2023-03-12T22:15:09.238Z,1.48
2023-03-12T22:17:41.199Z,0.90
2023-03-12T22:20:12.736Z,0.80
2023-03-12T22:22:44.788Z,1.40
2023-03-12T22:25:16.291Z,1.45
2023-03-12T22:27:48.130Z,1.73
2023-03-12T22:30:19.917Z,1.55
2023-03-12T22:32:51.818Z,1.42
2023-03-12T22:35:25.864Z,1.93
2023-03-12T22:37:57.791Z,1.20
2023-03-12T22:40:29.297Z,1.33
2023-03-12T22:43:01.168Z,1.35
2023-03-12T22:45:32.686Z,1.50
2023-03-12T22:48:04.367Z,0.90
2023-03-12T22:50:35.965Z,2.22
2023-03-12T22:53:07.854Z,1.15
2023-03-12T22:55:39.363Z,1.73
2023-03-12T22:58:12.016Z,1.10
2023-03-12T23:00:43.528Z,1.45
2023-03-12T23:03:15.634Z,1.33
2023-03-12T23:05:47.194Z,1.63
2023-03-12T23:08:19.027Z,1.60
2023-03-12T23:10:50.544Z,1.90
2023-03-12T23:13:22.443Z,1.30
2023-03-12T23:15:54.019Z,2.40
2023-03-12T23:18:25.719Z,1.45
2023-03-12T23:20:57.239Z,1.70
2023-03-12T23:23:28.790Z,1.45
2023-03-12T23:26:00.331Z,1.17
2023-03-12T23:28:31.929Z,1.08
2023-03-12T23:31:03.600Z,1.52
2023-03-12T23:33:35.545Z,1.70
2023-03-12T23:36:07.480Z,1.17
2023-03-12T23:38:39.406Z,2.13
2023-03-12T23:41:10.936Z,1.75
2023-03-12T23:43:42.777Z,2.08
2023-03-12T23:46:14.443Z,0.90
2023-03-12T23:48:46.800Z,1.48
2023-03-12T23:51:18.340Z,1.02
2023-03-12T23:53:50.230Z,1.00
2023-03-12T23:56:21.809Z,1.63
2023-03-12T23:58:53.647Z,0.90
